CCA2188 ZJSY-ZBAA
Flight info
| Callsign | CCA2188 |
|---|---|
| Flight time | N/A |
| Altitude | 35100 |
| Route | PORAP W222 NUMKU W223 AGTEL W71 LH R339 BHY W159 IVPUB W120 ENKUS JW W2 SJG W102 EMVIL W284 UPSIK W4 VADMO W56 DUGEB |
| Aircraft | A359/H-SDE2E3GHIJ3J4J5LM1ORWXY/LB1D1 |
Departure
| Time | 2026-05-04 01:29 |
|---|---|
| Airport | Sanya Phoenix International Airport (ZJSY) |
Arrival
| Time | N/A |
|---|---|
| Airport | Beijing Capital International Airport (ZBAA) |
| Time | Latitude | Longitude | Altitude | Speed | Heading |
|---|---|---|---|---|---|
| 2026-05-04 01:16 | 18.30797 | 109.40692 | 105 ft | 0 kts | 352° |
| 2026-05-04 01:21 | 18.30783 | 109.40694 | 104 ft | 2 kts | 353° |
| 2026-05-04 01:21 | 18.30773 | 109.40695 | 104 ft | 2 kts | 352° |
| 2026-05-04 01:22 | 18.30758 | 109.40699 | 103 ft | 2 kts | 334° |
| 2026-05-04 01:22 | 18.30746 | 109.40707 | 103 ft | 2 kts | 318° |
| 2026-05-04 01:22 | 18.30736 | 109.40718 | 103 ft | 2 kts | 303° |
| 2026-05-04 01:22 | 18.30729 | 109.40733 | 103 ft | 2 kts | 287° |
| 2026-05-04 01:23 | 18.30726 | 109.40748 | 103 ft | 2 kts | 271° |
| 2026-05-04 01:23 | 18.30726 | 109.40757 | 103 ft | 0 kts | 262° |
| 2026-05-04 01:23 | 18.30726 | 109.40761 | 103 ft | 0 kts | 262° |
| 2026-05-04 01:24 | 18.30726 | 109.40760 | 103 ft | 1 kts | 262° |
| 2026-05-04 01:25 | 18.30721 | 109.40725 | 102 ft | 7 kts | 261° |
| 2026-05-04 01:25 | 18.30711 | 109.40673 | 101 ft | 7 kts | 248° |
| 2026-05-04 01:25 | 18.30664 | 109.40651 | 99 ft | 9 kts | 178° |
| 2026-05-04 01:25 | 18.30589 | 109.40659 | 98 ft | 11 kts | 173° |
| 2026-05-04 01:26 | 18.30506 | 109.40671 | 96 ft | 13 kts | 172° |
| 2026-05-04 01:26 | 18.30419 | 109.40668 | 93 ft | 13 kts | 210° |
| 2026-05-04 01:26 | 18.30381 | 109.40569 | 89 ft | 17 kts | 261° |
| 2026-05-04 01:26 | 18.30362 | 109.40424 | 86 ft | 21 kts | 265° |
| 2026-05-04 01:27 | 18.30344 | 109.40271 | 83 ft | 22 kts | 262° |
| 2026-05-04 01:27 | 18.30321 | 109.40100 | 82 ft | 18 kts | 262° |
| 2026-05-04 01:27 | 18.30301 | 109.39950 | 79 ft | 22 kts | 263° |
| 2026-05-04 01:27 | 18.30285 | 109.39815 | 79 ft | 18 kts | 262° |
| 2026-05-04 01:28 | 18.30267 | 109.39706 | 79 ft | 8 kts | 248° |
| 2026-05-04 01:28 | 18.30223 | 109.39649 | 78 ft | 11 kts | 212° |
| 2026-05-04 01:28 | 18.30141 | 109.39638 | 76 ft | 12 kts | 172° |
| 2026-05-04 01:28 | 18.30098 | 109.39701 | 75 ft | 13 kts | 90° |
| 2026-05-04 01:29 | 18.30123 | 109.39912 | 76 ft | 58 kts | 83° |
| 2026-05-04 01:29 | 18.30217 | 109.40599 | 86 ft | 132 kts | 82° |
| 2026-05-04 01:29 | 18.30371 | 109.41798 | 226 ft | 185 kts | 82° |
| 2026-05-04 01:29 | 18.30547 | 109.43157 | 960 ft | 195 kts | 81° |
| 2026-05-04 01:30 | 18.30738 | 109.44598 | 1761 ft | 209 kts | 81° |
| 2026-05-04 01:30 | 18.30945 | 109.46167 | 2535 ft | 227 kts | 82° |
| 2026-05-04 01:30 | 18.31176 | 109.47835 | 3271 ft | 236 kts | 78° |
| 2026-05-04 01:30 | 18.31924 | 109.49387 | 3794 ft | 249 kts | 44° |
| 2026-05-04 01:31 | 18.33334 | 109.50429 | 4595 ft | 251 kts | 33° |
| 2026-05-04 01:31 | 18.34817 | 109.51409 | 5277 ft | 258 kts | 33° |
| 2026-05-04 01:31 | 18.36346 | 109.52437 | 6016 ft | 263 kts | 33° |
| 2026-05-04 01:31 | 18.37896 | 109.53506 | 6750 ft | 267 kts | 34° |
| 2026-05-04 01:32 | 18.39438 | 109.54585 | 7465 ft | 271 kts | 34° |
| 2026-05-04 01:32 | 18.41024 | 109.55705 | 8166 ft | 276 kts | 33° |
| 2026-05-04 01:32 | 18.42609 | 109.56827 | 8845 ft | 280 kts | 33° |
| 2026-05-04 01:32 | 18.44240 | 109.57983 | 9529 ft | 283 kts | 33° |
| 2026-05-04 01:33 | 18.45875 | 109.59142 | 10199 ft | 287 kts | 33° |
| 2026-05-04 01:33 | 18.47521 | 109.60309 | 10892 ft | 288 kts | 32° |
| 2026-05-04 01:33 | 18.49233 | 109.61410 | 11461 ft | 294 kts | 27° |
| 2026-05-04 01:33 | 18.51121 | 109.62395 | 11806 ft | 310 kts | 23° |
| 2026-05-04 01:34 | 18.53139 | 109.63358 | 12142 ft | 325 kts | 22° |
| 2026-05-04 01:34 | 18.55267 | 109.64364 | 12452 ft | 341 kts | 22° |
| 2026-05-04 01:34 | 18.57497 | 109.65424 | 12748 ft | 357 kts | 23° |
| 2026-05-04 01:34 | 18.59817 | 109.66544 | 13029 ft | 373 kts | 23° |
| 2026-05-04 01:35 | 18.62187 | 109.67689 | 13297 ft | 387 kts | 23° |
| 2026-05-04 01:35 | 18.64693 | 109.68896 | 13562 ft | 401 kts | 23° |
| 2026-05-04 01:35 | 18.67277 | 109.70138 | 13813 ft | 414 kts | 23° |
| 2026-05-04 01:35 | 18.69949 | 109.71422 | 14175 ft | 423 kts | 23° |
| 2026-05-04 01:36 | 18.72638 | 109.72713 | 14690 ft | 427 kts | 23° |
| 2026-05-04 01:36 | 18.75346 | 109.74013 | 15207 ft | 431 kts | 23° |
| 2026-05-04 01:36 | 18.78126 | 109.75347 | 15725 ft | 434 kts | 23° |
| 2026-05-04 01:36 | 18.80883 | 109.76669 | 16226 ft | 438 kts | 23° |
| 2026-05-04 01:37 | 18.83644 | 109.77995 | 16741 ft | 440 kts | 23° |
| 2026-05-04 01:37 | 18.86459 | 109.79346 | 17251 ft | 443 kts | 23° |
| 2026-05-04 01:37 | 18.89272 | 109.80698 | 17744 ft | 446 kts | 23° |
| 2026-05-04 01:37 | 18.92101 | 109.82059 | 18218 ft | 449 kts | 23° |
| 2026-05-04 01:38 | 18.94969 | 109.83439 | 18669 ft | 452 kts | 23° |
| 2026-05-04 01:38 | 18.97833 | 109.84817 | 19110 ft | 455 kts | 22° |
| 2026-05-04 01:38 | 19.00712 | 109.86204 | 19526 ft | 459 kts | 22° |
| 2026-05-04 01:38 | 19.03629 | 109.87608 | 19942 ft | 462 kts | 22° |
| 2026-05-04 01:39 | 19.06564 | 109.89023 | 20337 ft | 465 kts | 22° |
| 2026-05-04 01:39 | 19.09551 | 109.90462 | 20725 ft | 469 kts | 22° |
| 2026-05-04 01:39 | 19.12518 | 109.91890 | 21103 ft | 472 kts | 22° |
| 2026-05-04 01:39 | 19.15540 | 109.93340 | 21482 ft | 475 kts | 22° |
| 2026-05-04 01:40 | 19.18541 | 109.94785 | 21835 ft | 478 kts | 22° |
| 2026-05-04 01:40 | 19.21572 | 109.96246 | 22181 ft | 482 kts | 22° |
| 2026-05-04 01:40 | 19.24629 | 109.97721 | 22536 ft | 484 kts | 22° |
| 2026-05-04 01:40 | 19.27721 | 109.99184 | 22883 ft | 487 kts | 21° |
| 2026-05-04 01:41 | 19.30841 | 110.00620 | 23217 ft | 490 kts | 20° |
| 2026-05-04 01:41 | 19.33989 | 110.02087 | 23559 ft | 493 kts | 21° |
| 2026-05-04 01:41 | 19.37131 | 110.03588 | 23882 ft | 496 kts | 21° |
| 2026-05-04 01:41 | 19.40283 | 110.05109 | 24236 ft | 498 kts | 22° |
| 2026-05-04 01:42 | 19.43438 | 110.06635 | 24572 ft | 500 kts | 22° |
| 2026-05-04 01:42 | 19.46615 | 110.08172 | 24876 ft | 502 kts | 22° |
| 2026-05-04 01:42 | 19.49818 | 110.09721 | 25191 ft | 504 kts | 22° |
| 2026-05-04 01:42 | 19.52994 | 110.11258 | 25488 ft | 506 kts | 22° |
| 2026-05-04 01:43 | 19.56236 | 110.12825 | 25784 ft | 509 kts | 22° |
| 2026-05-04 01:43 | 19.59452 | 110.14382 | 26093 ft | 510 kts | 21° |
| 2026-05-04 01:43 | 19.62697 | 110.15952 | 26368 ft | 512 kts | 22° |
| 2026-05-04 01:43 | 19.65928 | 110.17516 | 26635 ft | 514 kts | 22° |
| 2026-05-04 01:44 | 19.69215 | 110.19108 | 26917 ft | 516 kts | 22° |
| 2026-05-04 01:44 | 19.72462 | 110.20682 | 27171 ft | 517 kts | 21° |
| 2026-05-04 01:44 | 19.75771 | 110.22286 | 27442 ft | 519 kts | 22° |
| 2026-05-04 01:44 | 19.79023 | 110.23863 | 27676 ft | 521 kts | 22° |
| 2026-05-04 01:45 | 19.82342 | 110.25475 | 27925 ft | 522 kts | 22° |
| 2026-05-04 01:45 | 19.85656 | 110.27085 | 28152 ft | 524 kts | 21° |
| 2026-05-04 01:45 | 19.92342 | 110.30336 | 28633 ft | 527 kts | 22° |
| 2026-05-04 01:46 | 19.95654 | 110.31949 | 28858 ft | 529 kts | 22° |
| 2026-05-04 01:46 | 19.99006 | 110.33581 | 29080 ft | 530 kts | 22° |
| 2026-05-04 01:46 | 20.02371 | 110.35183 | 29303 ft | 530 kts | 18° |
| 2026-05-04 01:46 | 20.05889 | 110.36357 | 29544 ft | 525 kts | 9° |
| 2026-05-04 01:47 | 20.09480 | 110.36942 | 29939 ft | 518 kts | 1° |
| 2026-05-04 01:47 | 20.13046 | 110.36964 | 30346 ft | 511 kts | 352° |
| 2026-05-04 01:47 | 20.16551 | 110.36464 | 30722 ft | 505 kts | 346° |
| 2026-05-04 01:47 | 20.20007 | 110.35752 | 31111 ft | 502 kts | 345° |
| 2026-05-04 01:48 | 20.23416 | 110.35010 | 31428 ft | 502 kts | 345° |
| 2026-05-04 01:48 | 20.26870 | 110.34253 | 31713 ft | 502 kts | 345° |
| 2026-05-04 01:48 | 20.30275 | 110.33516 | 32013 ft | 501 kts | 345° |
| 2026-05-04 01:48 | 20.33707 | 110.32783 | 32328 ft | 500 kts | 345° |
| 2026-05-04 01:49 | 20.37110 | 110.32061 | 32678 ft | 498 kts | 345° |
| 2026-05-04 01:49 | 20.40501 | 110.31345 | 33045 ft | 497 kts | 345° |
| 2026-05-04 01:49 | 20.43898 | 110.30680 | 33376 ft | 497 kts | 347° |
| 2026-05-04 01:49 | 20.47343 | 110.30183 | 33654 ft | 499 kts | 350° |
| 2026-05-04 01:50 | 20.50814 | 110.29872 | 33881 ft | 502 kts | 353° |
| 2026-05-04 01:50 | 20.54312 | 110.29749 | 34083 ft | 505 kts | 355° |
| 2026-05-04 01:50 | 20.57858 | 110.29821 | 34255 ft | 508 kts | 359° |
| 2026-05-04 01:50 | 20.61417 | 110.30028 | 34437 ft | 510 kts | 359° |
| 2026-05-04 01:51 | 20.64996 | 110.30266 | 34584 ft | 511 kts | 360° |
| 2026-05-04 01:51 | 20.68564 | 110.30510 | 34742 ft | 512 kts | 359° |
| 2026-05-04 01:51 | 20.72142 | 110.30755 | 34931 ft | 513 kts | 359° |
| 2026-05-04 01:51 | 20.75684 | 110.30991 | 35104 ft | 513 kts | 359° |
| 2026-05-04 01:52 | 20.82866 | 110.31467 | 35102 ft | 516 kts | 359° |
| 2026-05-04 01:52 | 20.90040 | 110.31941 | 35113 ft | 518 kts | 359° |
| 2026-05-04 01:53 | 20.97267 | 110.32421 | 35119 ft | 520 kts | 359° |
| 2026-05-04 01:53 | 21.04504 | 110.32583 | 35097 ft | 512 kts | 348° |
| 2026-05-04 01:54 | 21.11158 | 110.30413 | 35116 ft | 497 kts | 327° |
| 2026-05-04 01:54 | 21.16567 | 110.25996 | 35119 ft | 484 kts | 308° |
| 2026-05-04 01:55 | 21.20272 | 110.20062 | 35125 ft | 480 kts | 295° |
| 2026-05-04 01:55 | 21.23448 | 110.13744 | 35118 ft | 481 kts | 295° |
| 2026-05-04 01:56 | 21.26592 | 110.07455 | 35124 ft | 482 kts | 295° |
| 2026-05-04 01:56 | 21.29755 | 110.01143 | 35122 ft | 483 kts | 294° |
| 2026-05-04 01:57 | 21.32945 | 109.94777 | 35124 ft | 484 kts | 294° |
| 2026-05-04 01:57 | 21.36125 | 109.88427 | 35123 ft | 484 kts | 295° |
| 2026-05-04 01:58 | 21.39300 | 109.82084 | 35127 ft | 483 kts | 295° |
| 2026-05-04 01:58 | 21.42477 | 109.75729 | 35127 ft | 483 kts | 295° |
| 2026-05-04 01:59 | 21.45636 | 109.69401 | 35130 ft | 484 kts | 295° |
| 2026-05-04 01:59 | 21.48809 | 109.63034 | 35134 ft | 484 kts | 295° |
| 2026-05-04 02:00 | 21.51980 | 109.56662 | 35137 ft | 483 kts | 295° |
| 2026-05-04 02:00 | 21.55578 | 109.50549 | 35138 ft | 489 kts | 307° |
| 2026-05-04 02:01 | 21.60648 | 109.45679 | 35131 ft | 499 kts | 322° |
| 2026-05-04 02:01 | 21.67019 | 109.42461 | 35137 ft | 511 kts | 339° |
| 2026-05-04 02:02 | 21.74057 | 109.41125 | 35151 ft | 518 kts | 348° |
| 2026-05-04 02:02 | 21.81239 | 109.40231 | 35158 ft | 519 kts | 349° |
| 2026-05-04 02:03 | 21.88454 | 109.39330 | 35156 ft | 519 kts | 348° |
| 2026-05-04 02:03 | 21.95594 | 109.38415 | 35165 ft | 518 kts | 348° |
| 2026-05-04 02:04 | 22.02755 | 109.37485 | 35166 ft | 518 kts | 348° |
| 2026-05-04 02:04 | 22.09943 | 109.36550 | 35167 ft | 518 kts | 348° |
| 2026-05-04 02:05 | 22.17097 | 109.35624 | 35167 ft | 518 kts | 348° |
| 2026-05-04 02:05 | 22.24344 | 109.35043 | 35169 ft | 524 kts | 354° |
| 2026-05-04 02:06 | 22.31645 | 109.35259 | 35173 ft | 528 kts | 0° |
| 2026-05-04 02:06 | 22.38973 | 109.36295 | 35175 ft | 533 kts | 5° |
| 2026-05-04 02:07 | 22.46293 | 109.37734 | 35181 ft | 534 kts | 6° |
| 2026-05-04 02:07 | 22.53604 | 109.39192 | 35190 ft | 534 kts | 6° |
| 2026-05-04 02:08 | 22.60952 | 109.40646 | 35183 ft | 535 kts | 6° |
| 2026-05-04 02:08 | 22.68292 | 109.42090 | 35186 ft | 536 kts | 5° |
| 2026-05-04 02:09 | 22.75627 | 109.43536 | 35180 ft | 536 kts | 5° |
| 2026-05-04 02:09 | 22.83001 | 109.44999 | 35182 ft | 536 kts | 5° |
| 2026-05-04 02:10 | 22.90308 | 109.46448 | 35184 ft | 538 kts | 6° |
| 2026-05-04 02:10 | 22.97680 | 109.47907 | 35180 ft | 537 kts | 5° |
| 2026-05-04 02:11 | 23.04927 | 109.49345 | 35181 ft | 538 kts | 5° |
| 2026-05-04 02:11 | 23.12279 | 109.50806 | 35185 ft | 538 kts | 5° |
| 2026-05-04 02:12 | 23.19675 | 109.52271 | 35190 ft | 537 kts | 5° |
| 2026-05-04 02:12 | 23.27030 | 109.53732 | 35193 ft | 538 kts | 5° |
| 2026-05-04 02:13 | 23.34385 | 109.55196 | 35189 ft | 538 kts | 5° |
| 2026-05-04 02:13 | 23.41749 | 109.56664 | 35191 ft | 538 kts | 5° |
| 2026-05-04 02:14 | 23.49111 | 109.58133 | 35180 ft | 538 kts | 5° |
| 2026-05-04 02:14 | 23.56521 | 109.59613 | 35185 ft | 539 kts | 5° |
| 2026-05-04 02:15 | 23.63900 | 109.61089 | 35187 ft | 538 kts | 5° |
| 2026-05-04 02:15 | 23.71258 | 109.62563 | 35186 ft | 538 kts | 4° |
| 2026-05-04 02:16 | 23.78639 | 109.64043 | 35193 ft | 538 kts | 5° |
| 2026-05-04 02:16 | 23.85966 | 109.65514 | 35191 ft | 537 kts | 5° |
| 2026-05-04 02:17 | 23.93326 | 109.66991 | 35188 ft | 537 kts | 4° |
| 2026-05-04 02:17 | 24.00693 | 109.68475 | 35185 ft | 536 kts | 4° |
| 2026-05-04 02:18 | 24.08028 | 109.69950 | 35184 ft | 537 kts | 4° |
| 2026-05-04 02:18 | 24.15393 | 109.71430 | 35187 ft | 538 kts | 4° |
| 2026-05-04 02:19 | 24.22775 | 109.72918 | 35191 ft | 538 kts | 4° |
| 2026-05-04 02:19 | 24.30135 | 109.74403 | 35186 ft | 538 kts | 4° |
| 2026-05-04 02:20 | 24.37490 | 109.75890 | 35186 ft | 538 kts | 4° |
| 2026-05-04 02:20 | 24.44880 | 109.77387 | 35193 ft | 538 kts | 4° |
| 2026-05-04 02:21 | 24.52255 | 109.78882 | 35188 ft | 538 kts | 4° |
| 2026-05-04 02:21 | 24.59605 | 109.80434 | 35193 ft | 541 kts | 6° |
| 2026-05-04 02:22 | 24.66915 | 109.82679 | 35199 ft | 547 kts | 12° |
| 2026-05-04 02:22 | 24.73992 | 109.85794 | 35197 ft | 554 kts | 19° |
| 2026-05-04 02:23 | 24.80899 | 109.89733 | 35207 ft | 558 kts | 23° |
| 2026-05-04 02:23 | 24.87737 | 109.93861 | 35203 ft | 559 kts | 22° |
| 2026-05-04 02:24 | 24.94631 | 109.97720 | 35204 ft | 555 kts | 17° |
| 2026-05-04 02:24 | 25.01833 | 110.00641 | 35204 ft | 546 kts | 9° |
| 2026-05-04 02:25 | 25.09212 | 110.02505 | 35210 ft | 538 kts | 1° |
| 2026-05-04 02:25 | 25.16583 | 110.03453 | 35212 ft | 532 kts | 357° |
| 2026-05-04 02:26 | 25.23979 | 110.04202 | 35214 ft | 533 kts | 357° |
| 2026-05-04 02:26 | 25.31303 | 110.04797 | 35197 ft | 523 kts | 350° |
| 2026-05-04 02:27 | 25.34906 | 110.04429 | 35208 ft | 511 kts | 341° |
| 2026-05-04 02:27 | 25.38343 | 110.03496 | 35218 ft | 499 kts | 333° |
| 2026-05-04 02:27 | 25.41510 | 110.02077 | 35217 ft | 488 kts | 325° |
| 2026-05-04 02:27 | 25.44427 | 110.00208 | 35217 ft | 478 kts | 317° |
| 2026-05-04 02:28 | 25.49290 | 109.95458 | 35243 ft | 464 kts | 306° |
| 2026-05-04 02:28 | 25.53672 | 109.90172 | 35238 ft | 463 kts | 305° |
| 2026-05-04 02:29 | 25.57999 | 109.84911 | 35242 ft | 463 kts | 305° |
| 2026-05-04 02:29 | 25.62340 | 109.79643 | 35237 ft | 463 kts | 305° |
| 2026-05-04 02:30 | 25.66671 | 109.74385 | 35236 ft | 462 kts | 305° |
| 2026-05-04 02:30 | 25.71094 | 109.69199 | 35220 ft | 468 kts | 310° |
| 2026-05-04 02:31 | 25.76498 | 109.65025 | 35226 ft | 484 kts | 324° |
| 2026-05-04 02:31 | 25.82940 | 109.62376 | 35225 ft | 503 kts | 339° |
| 2026-05-04 02:32 | 25.86443 | 109.61755 | 35232 ft | 514 kts | 347° |
| 2026-05-04 02:32 | 25.90029 | 109.61656 | 35238 ft | 522 kts | 353° |
| 2026-05-04 02:32 | 25.97329 | 109.62035 | 35244 ft | 526 kts | 354° |
| 2026-05-04 02:33 | 26.04657 | 109.62495 | 35251 ft | 525 kts | 354° |
| 2026-05-04 02:33 | 26.11936 | 109.62927 | 35246 ft | 524 kts | 354° |
| 2026-05-04 02:34 | 26.19202 | 109.63343 | 35248 ft | 524 kts | 354° |
| 2026-05-04 02:34 | 26.26519 | 109.63759 | 35246 ft | 524 kts | 354° |
| 2026-05-04 02:35 | 26.33785 | 109.64172 | 35240 ft | 523 kts | 354° |
| 2026-05-04 02:35 | 26.41048 | 109.64590 | 35252 ft | 524 kts | 354° |
| 2026-05-04 02:36 | 26.48362 | 109.65030 | 35254 ft | 522 kts | 354° |
| 2026-05-04 02:36 | 26.55621 | 109.65464 | 35253 ft | 523 kts | 354° |
| 2026-05-04 02:37 | 26.62885 | 109.65900 | 35258 ft | 522 kts | 354° |
| 2026-05-04 02:37 | 26.70121 | 109.66332 | 35246 ft | 522 kts | 354° |
| 2026-05-04 02:38 | 26.77366 | 109.66765 | 35243 ft | 521 kts | 354° |
| 2026-05-04 02:38 | 26.84606 | 109.67198 | 35241 ft | 521 kts | 354° |
| 2026-05-04 02:39 | 26.91856 | 109.67632 | 35230 ft | 521 kts | 354° |
| 2026-05-04 02:39 | 26.99104 | 109.68066 | 35237 ft | 521 kts | 354° |
| 2026-05-04 02:40 | 27.06368 | 109.68504 | 35244 ft | 520 kts | 354° |
| 2026-05-04 02:40 | 27.13583 | 109.68938 | 35244 ft | 520 kts | 354° |
| 2026-05-04 02:41 | 27.20799 | 109.69376 | 35238 ft | 520 kts | 354° |
| 2026-05-04 02:41 | 27.28007 | 109.69813 | 35235 ft | 519 kts | 354° |
| 2026-05-04 02:42 | 27.35250 | 109.70249 | 35238 ft | 519 kts | 354° |
| 2026-05-04 02:42 | 27.42481 | 109.70683 | 35234 ft | 518 kts | 353° |
| 2026-05-04 02:43 | 27.49633 | 109.70687 | 35239 ft | 511 kts | 349° |
| 2026-05-04 02:43 | 27.56700 | 109.70414 | 35230 ft | 510 kts | 348° |
| 2026-05-04 02:44 | 27.63800 | 109.70122 | 35229 ft | 510 kts | 348° |
| 2026-05-04 02:44 | 27.70890 | 109.69843 | 35226 ft | 509 kts | 348° |
| 2026-05-04 02:45 | 27.78002 | 109.69562 | 35225 ft | 509 kts | 349° |
| 2026-05-04 02:45 | 27.85086 | 109.69285 | 35226 ft | 509 kts | 348° |
| 2026-05-04 02:46 | 27.92156 | 109.69008 | 35230 ft | 508 kts | 349° |
| 2026-05-04 02:46 | 27.99205 | 109.68731 | 35232 ft | 508 kts | 348° |
| 2026-05-04 02:47 | 28.06312 | 109.68455 | 35236 ft | 507 kts | 349° |
| 2026-05-04 02:47 | 28.13350 | 109.68196 | 35239 ft | 508 kts | 349° |
| 2026-05-04 02:48 | 28.20417 | 109.67941 | 35241 ft | 507 kts | 349° |
| 2026-05-04 02:48 | 28.27488 | 109.67680 | 35241 ft | 507 kts | 349° |
| 2026-05-04 02:49 | 28.34540 | 109.67416 | 35243 ft | 507 kts | 349° |
| 2026-05-04 02:49 | 28.41579 | 109.67153 | 35242 ft | 505 kts | 349° |
| 2026-05-04 02:50 | 28.48595 | 109.66888 | 35243 ft | 507 kts | 349° |
| 2026-05-04 02:50 | 28.55680 | 109.66621 | 35240 ft | 506 kts | 349° |
| 2026-05-04 02:51 | 28.62742 | 109.66353 | 35243 ft | 507 kts | 349° |
| 2026-05-04 02:51 | 28.69755 | 109.66090 | 35245 ft | 507 kts | 349° |
| 2026-05-04 02:52 | 28.76843 | 109.65826 | 35234 ft | 507 kts | 349° |
| 2026-05-04 02:52 | 28.83880 | 109.65559 | 35232 ft | 507 kts | 349° |
| 2026-05-04 02:53 | 28.90896 | 109.65292 | 35242 ft | 507 kts | 349° |
| 2026-05-04 02:53 | 28.97982 | 109.65024 | 35243 ft | 507 kts | 349° |
| 2026-05-04 02:54 | 29.05009 | 109.64754 | 35239 ft | 508 kts | 349° |
| 2026-05-04 02:54 | 29.12069 | 109.64487 | 35250 ft | 506 kts | 349° |
| 2026-05-04 02:55 | 29.22666 | 109.64092 | 35263 ft | 508 kts | 349° |
| 2026-05-04 02:56 | 29.29721 | 109.63822 | 35270 ft | 506 kts | 349° |
| 2026-05-04 02:56 | 29.36761 | 109.63554 | 35272 ft | 507 kts | 349° |
| 2026-05-04 02:57 | 29.43777 | 109.63281 | 35274 ft | 506 kts | 349° |
| 2026-05-04 02:57 | 29.50840 | 109.63008 | 35273 ft | 506 kts | 349° |
| 2026-05-04 02:58 | 29.57887 | 109.62746 | 35278 ft | 507 kts | 349° |
| 2026-05-04 02:58 | 29.64910 | 109.62483 | 35281 ft | 507 kts | 349° |
| 2026-05-04 02:59 | 29.72001 | 109.62218 | 35281 ft | 506 kts | 349° |
| 2026-05-04 02:59 | 29.79025 | 109.61951 | 35026 ft | 506 kts | 349° |
| 2026-05-04 02:59 | 29.82539 | 109.61819 | 35184 ft | 506 kts | 349° |
| 2026-05-04 03:00 | 29.86073 | 109.61684 | 35268 ft | 507 kts | 349° |
| 2026-05-04 03:00 | 29.93127 | 109.61417 | 35283 ft | 507 kts | 350° |
| 2026-05-04 03:01 | 30.00171 | 109.61147 | 35298 ft | 508 kts | 350° |
| 2026-05-04 03:01 | 30.07233 | 109.60878 | 35304 ft | 509 kts | 350° |
| 2026-05-04 03:02 | 30.14328 | 109.60612 | 35288 ft | 508 kts | 350° |
| 2026-05-04 03:02 | 30.21392 | 109.60354 | 35472 ft | 506 kts | 351° |
| 2026-05-04 03:03 | 30.28436 | 109.60230 | 35345 ft | 508 kts | 353° |
| 2026-05-04 03:03 | 30.35533 | 109.60619 | 35312 ft | 512 kts | 355° |
| 2026-05-04 03:04 | 30.42643 | 109.61195 | 35298 ft | 513 kts | 356° |
| 2026-05-04 03:04 | 30.49752 | 109.61861 | 35300 ft | 513 kts | 357° |
| 2026-05-04 03:05 | 30.56872 | 109.62522 | 35292 ft | 512 kts | 356° |
| 2026-05-04 03:05 | 30.63951 | 109.63171 | 35292 ft | 511 kts | 357° |
| 2026-05-04 03:06 | 30.71044 | 109.63820 | 35294 ft | 511 kts | 357° |
| 2026-05-04 03:06 | 30.78166 | 109.64469 | 35299 ft | 511 kts | 357° |
| 2026-05-04 03:07 | 30.85232 | 109.65115 | 35296 ft | 511 kts | 357° |
| 2026-05-04 03:07 | 30.92291 | 109.65760 | 35294 ft | 509 kts | 357° |
| 2026-05-04 03:08 | 30.99388 | 109.66409 | 35277 ft | 509 kts | 357° |
| 2026-05-04 03:08 | 31.06435 | 109.67052 | 35281 ft | 507 kts | 358° |
| 2026-05-04 03:09 | 31.13466 | 109.67698 | 35272 ft | 507 kts | 357° |
| 2026-05-04 03:09 | 31.20506 | 109.68343 | 35276 ft | 507 kts | 358° |
| 2026-05-04 03:10 | 31.27519 | 109.68988 | 35276 ft | 507 kts | 358° |
| 2026-05-04 03:10 | 31.34596 | 109.69640 | 35288 ft | 508 kts | 358° |
| 2026-05-04 03:11 | 31.41641 | 109.70289 | 35283 ft | 507 kts | 358° |
| 2026-05-04 03:11 | 31.48640 | 109.70934 | 35299 ft | 508 kts | 358° |
| 2026-05-04 03:12 | 31.55720 | 109.71589 | 35308 ft | 507 kts | 358° |
| 2026-05-04 03:12 | 31.62723 | 109.72235 | 35309 ft | 507 kts | 358° |
| 2026-05-04 03:13 | 31.69761 | 109.72889 | 35128 ft | 507 kts | 358° |
| 2026-05-04 03:13 | 31.76819 | 109.73543 | 35266 ft | 509 kts | 358° |
| 2026-05-04 03:14 | 31.83848 | 109.74196 | 35318 ft | 508 kts | 358° |
| 2026-05-04 03:14 | 31.90904 | 109.74854 | 35309 ft | 508 kts | 358° |
| 2026-05-04 03:15 | 31.97978 | 109.75513 | 35245 ft | 508 kts | 359° |
| 2026-05-04 03:15 | 32.05005 | 109.76171 | 35236 ft | 508 kts | 359° |
| 2026-05-04 03:16 | 32.12064 | 109.76890 | 35244 ft | 510 kts | 1° |
| 2026-05-04 03:16 | 32.19085 | 109.78289 | 35233 ft | 514 kts | 7° |
| 2026-05-04 03:17 | 32.26014 | 109.80574 | 35237 ft | 520 kts | 13° |
| 2026-05-04 03:17 | 32.32757 | 109.83740 | 35228 ft | 525 kts | 19° |
| 2026-05-04 03:18 | 32.39341 | 109.87373 | 35232 ft | 524 kts | 20° |
| 2026-05-04 03:18 | 32.45916 | 109.91047 | 35225 ft | 522 kts | 20° |
| 2026-05-04 03:19 | 32.52469 | 109.94700 | 35225 ft | 522 kts | 20° |
| 2026-05-04 03:19 | 32.59066 | 109.98377 | 35216 ft | 522 kts | 20° |
| 2026-05-04 03:20 | 32.65613 | 110.02027 | 35218 ft | 522 kts | 20° |
| 2026-05-04 03:20 | 32.72179 | 110.05694 | 35209 ft | 520 kts | 20° |
| 2026-05-04 03:20 | 32.75461 | 110.07529 | 35446 ft | 519 kts | 20° |
| 2026-05-04 03:21 | 32.78694 | 110.09338 | 35404 ft | 518 kts | 20° |
| 2026-05-04 03:21 | 32.81951 | 110.11162 | 35270 ft | 516 kts | 20° |
| 2026-05-04 03:21 | 32.85168 | 110.12965 | 35220 ft | 514 kts | 21° |
| 2026-05-04 03:22 | 32.91635 | 110.16595 | 35199 ft | 515 kts | 21° |
| 2026-05-04 03:22 | 32.98154 | 110.20256 | 35185 ft | 515 kts | 21° |
| 2026-05-04 03:23 | 33.04609 | 110.23893 | 35195 ft | 514 kts | 21° |
| 2026-05-04 03:23 | 33.11050 | 110.27528 | 35196 ft | 512 kts | 21° |
| 2026-05-04 03:24 | 33.17486 | 110.31148 | 35208 ft | 512 kts | 21° |
| 2026-05-04 03:24 | 33.23960 | 110.34804 | 35214 ft | 512 kts | 21° |
| 2026-05-04 03:24 | 33.27162 | 110.36617 | 35015 ft | 512 kts | 21° |
| 2026-05-04 03:25 | 33.30378 | 110.38442 | 35120 ft | 513 kts | 21° |
| 2026-05-04 03:25 | 33.36830 | 110.42107 | 35189 ft | 513 kts | 21° |
| 2026-05-04 03:26 | 33.43256 | 110.45770 | 35217 ft | 513 kts | 21° |
| 2026-05-04 03:26 | 33.49697 | 110.49445 | 35202 ft | 512 kts | 21° |
| 2026-05-04 03:27 | 33.56107 | 110.53088 | 35222 ft | 511 kts | 21° |
| 2026-05-04 03:27 | 33.62523 | 110.56741 | 35231 ft | 510 kts | 21° |
| 2026-05-04 03:28 | 33.68912 | 110.60395 | 35220 ft | 510 kts | 21° |
| 2026-05-04 03:28 | 33.75292 | 110.64053 | 35247 ft | 509 kts | 21° |
| 2026-05-04 03:29 | 33.81711 | 110.67758 | 35252 ft | 509 kts | 22° |
| 2026-05-04 03:29 | 33.88044 | 110.71433 | 35254 ft | 508 kts | 22° |
| 2026-05-04 03:30 | 33.94416 | 110.75116 | 35242 ft | 508 kts | 22° |
| 2026-05-04 03:30 | 34.00779 | 110.78790 | 35236 ft | 506 kts | 22° |
| 2026-05-04 03:31 | 34.07126 | 110.82460 | 35220 ft | 506 kts | 22° |
| 2026-05-04 03:31 | 34.13467 | 110.86127 | 35213 ft | 506 kts | 22° |
| 2026-05-04 03:32 | 34.19801 | 110.89790 | 35221 ft | 505 kts | 22° |
| 2026-05-04 03:32 | 34.26134 | 110.93469 | 35228 ft | 504 kts | 22° |
| 2026-05-04 03:33 | 34.32438 | 110.97148 | 35217 ft | 505 kts | 23° |
| 2026-05-04 03:33 | 34.38474 | 111.01570 | 35215 ft | 510 kts | 33° |
| 2026-05-04 03:34 | 34.43840 | 111.07185 | 35213 ft | 514 kts | 43° |
| 2026-05-04 03:34 | 34.48385 | 111.13890 | 35210 ft | 519 kts | 53° |
| 2026-05-04 03:35 | 34.52219 | 111.21281 | 35211 ft | 520 kts | 56° |
| 2026-05-04 03:35 | 34.55981 | 111.28805 | 35226 ft | 520 kts | 56° |
| 2026-05-04 03:36 | 34.59729 | 111.36274 | 35206 ft | 520 kts | 56° |
| 2026-05-04 03:36 | 34.63469 | 111.43704 | 35198 ft | 519 kts | 56° |
| 2026-05-04 03:37 | 34.67224 | 111.51180 | 35185 ft | 519 kts | 56° |
| 2026-05-04 03:37 | 34.70974 | 111.58652 | 35177 ft | 518 kts | 56° |
| 2026-05-04 03:38 | 34.74710 | 111.66117 | 35174 ft | 519 kts | 56° |
| 2026-05-04 03:38 | 34.78462 | 111.73660 | 35177 ft | 519 kts | 56° |
| 2026-05-04 03:39 | 34.82173 | 111.81123 | 35169 ft | 519 kts | 56° |
| 2026-05-04 03:39 | 34.85896 | 111.88608 | 35178 ft | 519 kts | 56° |
| 2026-05-04 03:40 | 34.89637 | 111.96103 | 35171 ft | 518 kts | 56° |
| 2026-05-04 03:40 | 34.93381 | 112.03532 | 35182 ft | 517 kts | 56° |
| 2026-05-04 03:41 | 34.97146 | 112.11021 | 35186 ft | 517 kts | 56° |